OEDXB EDDV-EDDH
Flight info
| Callsign | OEDXB |
|---|---|
| Flight time | 0h 48m |
| Altitude | 7000 |
| Route | CEL9F CEL DCT NOLGO NOLGO6A |
| Aircraft | PA34/L-SDFGRY/S |
Departure
| Time | 2026-04-20 13:45 |
|---|---|
| Airport | Hannover Airport (EDDV) |
Arrival
| Time | 2026-04-20 14:33 |
|---|---|
| Airport | Hamburg Helmut Schmidt Airport (EDDH) |
| Time | Latitude | Longitude | Altitude | Speed | Heading |
|---|---|---|---|---|---|
| 2026-04-20 13:26 | 52.46305 | 9.69271 | 175 ft | 0 kts | 151° |
| 2026-04-20 13:40 | 52.46304 | 9.69272 | 175 ft | 3 kts | 148° |
| 2026-04-20 13:41 | 52.46340 | 9.69278 | 176 ft | 15 kts | 339° |
| 2026-04-20 13:41 | 52.46334 | 9.69115 | 176 ft | 22 kts | 249° |
| 2026-04-20 13:41 | 52.46263 | 9.68823 | 174 ft | 29 kts | 248° |
| 2026-04-20 13:41 | 52.46175 | 9.68614 | 173 ft | 16 kts | 163° |
| 2026-04-20 13:42 | 52.46056 | 9.68753 | 171 ft | 20 kts | 141° |
| 2026-04-20 13:42 | 52.45898 | 9.68951 | 171 ft | 13 kts | 143° |
| 2026-04-20 13:42 | 52.45827 | 9.69034 | 173 ft | 9 kts | 144° |
| 2026-04-20 13:43 | 52.45779 | 9.69100 | 174 ft | 9 kts | 140° |
| 2026-04-20 13:43 | 52.45716 | 9.69147 | 174 ft | 11 kts | 174° |
| 2026-04-20 13:43 | 52.45645 | 9.69144 | 176 ft | 10 kts | 183° |
| 2026-04-20 13:43 | 52.45580 | 9.69139 | 178 ft | 9 kts | 182° |
| 2026-04-20 13:44 | 52.45509 | 9.69133 | 180 ft | 14 kts | 184° |
| 2026-04-20 13:44 | 52.45466 | 9.68911 | 179 ft | 36 kts | 271° |
| 2026-04-20 13:44 | 52.45484 | 9.68226 | 190 ft | 81 kts | 273° |
| 2026-04-20 13:44 | 52.45504 | 9.67239 | 317 ft | 91 kts | 275° |
| 2026-04-20 13:45 | 52.45537 | 9.66212 | 597 ft | 89 kts | 276° |
| 2026-04-20 13:45 | 52.45572 | 9.65214 | 826 ft | 88 kts | 278° |
| 2026-04-20 13:45 | 52.45616 | 9.64180 | 983 ft | 93 kts | 277° |
| 2026-04-20 13:45 | 52.45647 | 9.63115 | 1155 ft | 95 kts | 278° |
| 2026-04-20 13:46 | 52.45867 | 9.62137 | 1292 ft | 92 kts | 316° |
| 2026-04-20 13:46 | 52.46312 | 9.61434 | 1505 ft | 89 kts | 322° |
| 2026-04-20 13:46 | 52.46785 | 9.60767 | 1661 ft | 92 kts | 324° |
| 2026-04-20 13:46 | 52.47262 | 9.60087 | 1860 ft | 90 kts | 324° |
| 2026-04-20 13:47 | 52.47740 | 9.59392 | 1982 ft | 94 kts | 324° |
| 2026-04-20 13:47 | 52.48225 | 9.58673 | 2126 ft | 94 kts | 324° |
| 2026-04-20 13:47 | 52.48713 | 9.57943 | 2263 ft | 95 kts | 325° |
| 2026-04-20 13:47 | 52.49202 | 9.57212 | 2379 ft | 96 kts | 327° |
| 2026-04-20 13:48 | 52.49707 | 9.56484 | 2490 ft | 97 kts | 327° |
| 2026-04-20 13:48 | 52.50202 | 9.55760 | 2630 ft | 96 kts | 327° |
| 2026-04-20 13:48 | 52.50785 | 9.55296 | 2686 ft | 92 kts | 358° |
| 2026-04-20 13:48 | 52.51402 | 9.55234 | 2805 ft | 90 kts | 7° |
| 2026-04-20 13:49 | 52.52031 | 9.55226 | 2943 ft | 89 kts | 7° |
| 2026-04-20 13:49 | 52.52649 | 9.55198 | 3079 ft | 90 kts | 7° |
| 2026-04-20 13:49 | 52.53270 | 9.55174 | 3212 ft | 89 kts | 9° |
| 2026-04-20 13:49 | 52.53883 | 9.55172 | 3366 ft | 87 kts | 10° |
| 2026-04-20 13:50 | 52.54488 | 9.55181 | 3494 ft | 87 kts | 11° |
| 2026-04-20 13:50 | 52.55099 | 9.55186 | 3611 ft | 88 kts | 11° |
| 2026-04-20 13:50 | 52.55711 | 9.55182 | 3715 ft | 89 kts | 10° |
| 2026-04-20 13:50 | 52.56336 | 9.55176 | 3822 ft | 90 kts | 11° |
| 2026-04-20 13:51 | 52.56961 | 9.55174 | 3951 ft | 90 kts | 10° |
| 2026-04-20 13:51 | 52.57596 | 9.55163 | 4023 ft | 95 kts | 10° |
| 2026-04-20 13:51 | 52.58246 | 9.55335 | 4017 ft | 95 kts | 39° |
| 2026-04-20 13:51 | 52.58555 | 9.56261 | 4039 ft | 97 kts | 75° |
| 2026-04-20 13:52 | 52.58602 | 9.57404 | 4054 ft | 102 kts | 83° |
| 2026-04-20 13:52 | 52.58629 | 9.58597 | 4070 ft | 107 kts | 84° |
| 2026-04-20 13:52 | 52.58638 | 9.59855 | 4030 ft | 113 kts | 84° |
| 2026-04-20 13:52 | 52.58658 | 9.61131 | 4042 ft | 114 kts | 84° |
| 2026-04-20 13:53 | 52.58683 | 9.62451 | 4034 ft | 117 kts | 84° |
| 2026-04-20 13:53 | 52.58703 | 9.63801 | 4021 ft | 119 kts | 84° |
| 2026-04-20 13:53 | 52.58710 | 9.65167 | 4008 ft | 120 kts | 85° |
| 2026-04-20 13:53 | 52.58705 | 9.66545 | 4002 ft | 120 kts | 85° |
| 2026-04-20 13:54 | 52.58713 | 9.67914 | 4002 ft | 120 kts | 85° |
| 2026-04-20 13:54 | 52.58732 | 9.69279 | 3998 ft | 119 kts | 83° |
| 2026-04-20 13:54 | 52.58770 | 9.70628 | 4003 ft | 117 kts | 83° |
| 2026-04-20 13:54 | 52.58815 | 9.71997 | 4008 ft | 129 kts | 83° |
| 2026-04-20 13:55 | 52.58872 | 9.73537 | 4015 ft | 139 kts | 83° |
| 2026-04-20 13:55 | 52.58893 | 9.75146 | 4017 ft | 144 kts | 86° |
| 2026-04-20 13:55 | 52.58891 | 9.76801 | 4016 ft | 145 kts | 85° |
| 2026-04-20 13:55 | 52.58895 | 9.78468 | 3997 ft | 146 kts | 85° |
| 2026-04-20 13:56 | 52.58900 | 9.80155 | 3997 ft | 148 kts | 85° |
| 2026-04-20 13:56 | 52.58906 | 9.81857 | 3991 ft | 149 kts | 85° |
| 2026-04-20 13:56 | 52.58912 | 9.83563 | 3989 ft | 149 kts | 85° |
| 2026-04-20 13:56 | 52.58917 | 9.85237 | 3989 ft | 148 kts | 85° |
| 2026-04-20 13:57 | 52.58922 | 9.86922 | 3991 ft | 147 kts | 85° |
| 2026-04-20 13:57 | 52.58927 | 9.88604 | 3992 ft | 147 kts | 85° |
| 2026-04-20 13:57 | 52.58932 | 9.90287 | 3989 ft | 147 kts | 85° |
| 2026-04-20 13:57 | 52.58936 | 9.91976 | 3988 ft | 148 kts | 85° |
| 2026-04-20 13:58 | 52.58941 | 9.93673 | 3989 ft | 148 kts | 86° |
| 2026-04-20 13:58 | 52.58945 | 9.95371 | 3990 ft | 148 kts | 86° |
| 2026-04-20 13:58 | 52.58948 | 9.97062 | 3990 ft | 147 kts | 85° |
| 2026-04-20 13:58 | 52.58952 | 9.98722 | 3994 ft | 147 kts | 85° |
| 2026-04-20 13:59 | 52.58954 | 9.99859 | 3991 ft | 147 kts | 85° |
| 2026-04-20 14:00 | 52.62786 | 10.01598 | 4065 ft | 156 kts | 340° |
| 2026-04-20 14:00 | 52.63749 | 10.00825 | 4194 ft | 152 kts | 342° |
| 2026-04-20 14:00 | 52.64709 | 10.00105 | 4325 ft | 151 kts | 343° |
| 2026-04-20 14:01 | 52.65670 | 9.99394 | 4447 ft | 151 kts | 343° |
| 2026-04-20 14:01 | 52.66626 | 9.98683 | 4576 ft | 151 kts | 343° |
| 2026-04-20 14:01 | 52.67587 | 9.97972 | 4709 ft | 152 kts | 343° |
| 2026-04-20 14:01 | 52.68542 | 9.97263 | 4837 ft | 153 kts | 343° |
| 2026-04-20 14:02 | 52.69514 | 9.96540 | 4976 ft | 154 kts | 343° |
| 2026-04-20 14:02 | 52.70486 | 9.95817 | 5092 ft | 153 kts | 344° |
| 2026-04-20 14:02 | 52.71454 | 9.95097 | 5224 ft | 153 kts | 343° |
| 2026-04-20 14:02 | 52.72431 | 9.94371 | 5348 ft | 154 kts | 343° |
| 2026-04-20 14:03 | 52.73412 | 9.93640 | 5471 ft | 155 kts | 343° |
| 2026-04-20 14:03 | 52.74395 | 9.92908 | 5599 ft | 156 kts | 343° |
| 2026-04-20 14:03 | 52.75381 | 9.92172 | 5734 ft | 156 kts | 343° |
| 2026-04-20 14:03 | 52.76371 | 9.91435 | 5862 ft | 156 kts | 343° |
| 2026-04-20 14:04 | 52.77363 | 9.90695 | 5986 ft | 157 kts | 343° |
| 2026-04-20 14:04 | 52.78358 | 9.89953 | 6119 ft | 157 kts | 343° |
| 2026-04-20 14:04 | 52.79356 | 9.89207 | 6244 ft | 158 kts | 343° |
| 2026-04-20 14:04 | 52.80343 | 9.88470 | 6365 ft | 158 kts | 343° |
| 2026-04-20 14:05 | 52.81345 | 9.87720 | 6502 ft | 159 kts | 343° |
| 2026-04-20 14:05 | 52.82357 | 9.86963 | 6631 ft | 160 kts | 343° |
| 2026-04-20 14:05 | 52.83376 | 9.86202 | 6755 ft | 161 kts | 342° |
| 2026-04-20 14:05 | 52.84399 | 9.85436 | 6881 ft | 161 kts | 342° |
| 2026-04-20 14:06 | 52.85422 | 9.84668 | 7007 ft | 161 kts | 342° |
| 2026-04-20 14:06 | 52.86449 | 9.83900 | 7113 ft | 164 kts | 342° |
| 2026-04-20 14:06 | 52.87502 | 9.83112 | 7128 ft | 168 kts | 342° |
| 2026-04-20 14:06 | 52.88576 | 9.82306 | 7127 ft | 171 kts | 342° |
| 2026-04-20 14:07 | 52.89652 | 9.81497 | 7130 ft | 173 kts | 341° |
| 2026-04-20 14:07 | 52.90747 | 9.80674 | 7132 ft | 173 kts | 342° |
| 2026-04-20 14:07 | 52.91845 | 9.79848 | 7129 ft | 173 kts | 341° |
| 2026-04-20 14:07 | 52.92940 | 9.79024 | 7138 ft | 175 kts | 342° |
| 2026-04-20 14:08 | 52.94058 | 9.78186 | 7128 ft | 177 kts | 341° |
| 2026-04-20 14:08 | 52.95180 | 9.77340 | 7131 ft | 177 kts | 341° |
| 2026-04-20 14:08 | 52.96303 | 9.76494 | 7128 ft | 177 kts | 341° |
| 2026-04-20 14:08 | 52.97415 | 9.75654 | 7124 ft | 175 kts | 341° |
| 2026-04-20 14:09 | 52.98519 | 9.74821 | 7124 ft | 174 kts | 341° |
| 2026-04-20 14:09 | 52.99603 | 9.74004 | 7121 ft | 173 kts | 341° |
| 2026-04-20 14:09 | 53.00699 | 9.73177 | 7120 ft | 173 kts | 341° |
| 2026-04-20 14:09 | 53.01795 | 9.72349 | 7120 ft | 173 kts | 341° |
| 2026-04-20 14:10 | 53.02891 | 9.71521 | 7123 ft | 173 kts | 341° |
| 2026-04-20 14:10 | 53.03987 | 9.70692 | 7121 ft | 173 kts | 341° |
| 2026-04-20 14:10 | 53.05084 | 9.69863 | 7130 ft | 173 kts | 341° |
| 2026-04-20 14:10 | 53.06179 | 9.69033 | 7127 ft | 173 kts | 341° |
| 2026-04-20 14:11 | 53.07274 | 9.68204 | 7128 ft | 173 kts | 341° |
| 2026-04-20 14:11 | 53.08371 | 9.67372 | 7128 ft | 174 kts | 341° |
| 2026-04-20 14:11 | 53.09472 | 9.66538 | 7128 ft | 174 kts | 341° |
| 2026-04-20 14:11 | 53.10560 | 9.65713 | 7128 ft | 174 kts | 341° |
| 2026-04-20 14:12 | 53.11662 | 9.64875 | 7133 ft | 174 kts | 341° |
| 2026-04-20 14:12 | 53.12763 | 9.64039 | 7130 ft | 174 kts | 341° |
| 2026-04-20 14:12 | 53.13864 | 9.63202 | 7131 ft | 174 kts | 342° |
| 2026-04-20 14:12 | 53.14963 | 9.62367 | 7130 ft | 174 kts | 341° |
| 2026-04-20 14:13 | 53.16061 | 9.61531 | 7132 ft | 174 kts | 341° |
| 2026-04-20 14:13 | 53.17162 | 9.60693 | 7131 ft | 174 kts | 341° |
| 2026-04-20 14:13 | 53.18263 | 9.59854 | 7130 ft | 174 kts | 341° |
| 2026-04-20 14:13 | 53.19348 | 9.59027 | 7133 ft | 174 kts | 341° |
| 2026-04-20 14:14 | 53.20443 | 9.58192 | 7131 ft | 168 kts | 341° |
| 2026-04-20 14:14 | 53.21451 | 9.57413 | 7134 ft | 153 kts | 342° |
| 2026-04-20 14:14 | 53.22394 | 9.56693 | 7113 ft | 148 kts | 342° |
| 2026-04-20 14:14 | 53.23344 | 9.55976 | 6977 ft | 151 kts | 342° |
| 2026-04-20 14:15 | 53.24305 | 9.55242 | 6827 ft | 153 kts | 342° |
| 2026-04-20 14:15 | 53.25300 | 9.54512 | 6260 ft | 163 kts | 344° |
| 2026-04-20 14:15 | 53.26318 | 9.53796 | 5834 ft | 159 kts | 343° |
| 2026-04-20 14:15 | 53.27339 | 9.53075 | 5338 ft | 160 kts | 344° |
| 2026-04-20 14:16 | 53.28333 | 9.52333 | 5005 ft | 153 kts | 341° |
| 2026-04-20 14:16 | 53.29258 | 9.51475 | 4601 ft | 158 kts | 326° |
| 2026-04-20 14:16 | 53.30062 | 9.50219 | 4217 ft | 158 kts | 323° |
| 2026-04-20 14:16 | 53.30841 | 9.48958 | 3907 ft | 155 kts | 322° |
| 2026-04-20 14:17 | 53.31612 | 9.47699 | 3560 ft | 155 kts | 323° |
| 2026-04-20 14:17 | 53.32410 | 9.46481 | 3259 ft | 154 kts | 325° |
| 2026-04-20 14:17 | 53.33223 | 9.45443 | 3165 ft | 141 kts | 338° |
| 2026-04-20 14:17 | 53.34098 | 9.44915 | 3163 ft | 131 kts | 356° |
| 2026-04-20 14:18 | 53.34968 | 9.44939 | 3147 ft | 122 kts | 17° |
| 2026-04-20 14:18 | 53.35786 | 9.45242 | 3163 ft | 119 kts | 19° |
| 2026-04-20 14:18 | 53.36522 | 9.45752 | 3170 ft | 113 kts | 43° |
| 2026-04-20 14:18 | 53.37060 | 9.46692 | 3168 ft | 112 kts | 49° |
| 2026-04-20 14:19 | 53.37579 | 9.47668 | 3172 ft | 113 kts | 51° |
| 2026-04-20 14:19 | 53.38084 | 9.48679 | 3187 ft | 113 kts | 51° |
| 2026-04-20 14:19 | 53.38605 | 9.49659 | 3195 ft | 113 kts | 50° |
| 2026-04-20 14:19 | 53.39132 | 9.50648 | 3191 ft | 115 kts | 51° |
| 2026-04-20 14:20 | 53.39642 | 9.51653 | 3192 ft | 114 kts | 52° |
| 2026-04-20 14:20 | 53.40144 | 9.52682 | 3189 ft | 114 kts | 52° |
| 2026-04-20 14:20 | 53.40649 | 9.53713 | 3209 ft | 114 kts | 52° |
| 2026-04-20 14:20 | 53.41158 | 9.54742 | 3196 ft | 117 kts | 52° |
| 2026-04-20 14:21 | 53.41669 | 9.55799 | 3223 ft | 115 kts | 54° |
| 2026-04-20 14:21 | 53.42187 | 9.56817 | 3224 ft | 114 kts | 51° |
| 2026-04-20 14:21 | 53.42712 | 9.57830 | 3191 ft | 115 kts | 51° |
| 2026-04-20 14:21 | 53.43240 | 9.58848 | 3174 ft | 116 kts | 51° |
| 2026-04-20 14:22 | 53.43764 | 9.59907 | 3205 ft | 123 kts | 54° |
| 2026-04-20 14:22 | 53.44293 | 9.60986 | 3191 ft | 119 kts | 51° |
| 2026-04-20 14:22 | 53.44828 | 9.62076 | 3226 ft | 119 kts | 52° |
| 2026-04-20 14:22 | 53.45342 | 9.63162 | 3199 ft | 121 kts | 53° |
| 2026-04-20 14:23 | 53.45889 | 9.64295 | 3082 ft | 129 kts | 53° |
| 2026-04-20 14:23 | 53.46479 | 9.65420 | 3028 ft | 125 kts | 52° |
| 2026-04-20 14:23 | 53.47034 | 9.66505 | 3006 ft | 120 kts | 51° |
| 2026-04-20 14:23 | 53.47559 | 9.67562 | 3013 ft | 116 kts | 53° |
| 2026-04-20 14:24 | 53.48063 | 9.68606 | 3026 ft | 116 kts | 53° |
| 2026-04-20 14:24 | 53.48571 | 9.69643 | 3032 ft | 114 kts | 52° |
| 2026-04-20 14:24 | 53.49093 | 9.70643 | 3067 ft | 114 kts | 51° |
| 2026-04-20 14:24 | 53.49595 | 9.71660 | 3036 ft | 115 kts | 53° |
| 2026-04-20 14:25 | 53.50098 | 9.72688 | 3039 ft | 113 kts | 52° |
| 2026-04-20 14:25 | 53.50606 | 9.73706 | 3048 ft | 116 kts | 52° |
| 2026-04-20 14:25 | 53.51115 | 9.74757 | 3026 ft | 115 kts | 53° |
| 2026-04-20 14:25 | 53.51605 | 9.75791 | 3068 ft | 112 kts | 52° |
| 2026-04-20 14:26 | 53.52101 | 9.76780 | 3052 ft | 110 kts | 53° |
| 2026-04-20 14:26 | 53.52589 | 9.77758 | 3037 ft | 107 kts | 51° |
| 2026-04-20 14:26 | 53.53043 | 9.78639 | 2889 ft | 93 kts | 52° |
| 2026-04-20 14:26 | 53.53446 | 9.79436 | 2718 ft | 89 kts | 52° |
| 2026-04-20 14:27 | 53.53837 | 9.80229 | 2540 ft | 86 kts | 53° |
| 2026-04-20 14:27 | 53.54197 | 9.80984 | 2432 ft | 81 kts | 52° |
| 2026-04-20 14:27 | 53.54551 | 9.81700 | 2324 ft | 79 kts | 52° |
| 2026-04-20 14:27 | 53.54888 | 9.82410 | 2240 ft | 76 kts | 52° |
| 2026-04-20 14:28 | 53.55225 | 9.83100 | 2138 ft | 77 kts | 51° |
| 2026-04-20 14:28 | 53.55568 | 9.83788 | 2051 ft | 77 kts | 50° |
| 2026-04-20 14:28 | 53.55911 | 9.84477 | 1974 ft | 78 kts | 49° |
| 2026-04-20 14:28 | 53.56255 | 9.85185 | 1874 ft | 79 kts | 50° |
| 2026-04-20 14:29 | 53.56609 | 9.85897 | 1755 ft | 79 kts | 50° |
| 2026-04-20 14:29 | 53.56964 | 9.86606 | 1638 ft | 79 kts | 49° |
| 2026-04-20 14:29 | 53.57320 | 9.87305 | 1550 ft | 78 kts | 49° |
| 2026-04-20 14:29 | 53.57676 | 9.88002 | 1426 ft | 80 kts | 49° |
| 2026-04-20 14:30 | 53.58031 | 9.88717 | 1334 ft | 80 kts | 50° |
| 2026-04-20 14:30 | 53.58388 | 9.89448 | 1212 ft | 80 kts | 51° |
| 2026-04-20 14:30 | 53.58747 | 9.90168 | 1063 ft | 81 kts | 51° |
| 2026-04-20 14:30 | 53.59103 | 9.90855 | 962 ft | 76 kts | 51° |
| 2026-04-20 14:31 | 53.59428 | 9.91557 | 859 ft | 75 kts | 52° |
| 2026-04-20 14:31 | 53.59756 | 9.92213 | 750 ft | 74 kts | 50° |
| 2026-04-20 14:31 | 53.60105 | 9.92873 | 643 ft | 78 kts | 51° |
| 2026-04-20 14:31 | 53.60447 | 9.93591 | 549 ft | 80 kts | 51° |
| 2026-04-20 14:32 | 53.60791 | 9.94314 | 445 ft | 78 kts | 51° |
| 2026-04-20 14:32 | 53.61152 | 9.95013 | 342 ft | 78 kts | 50° |
| 2026-04-20 14:32 | 53.61503 | 9.95724 | 236 ft | 80 kts | 51° |
| 2026-04-20 14:32 | 53.61859 | 9.96441 | 122 ft | 79 kts | 51° |
| 2026-04-20 14:33 | 53.62190 | 9.97110 | 43 ft | 62 kts | 50° |
| 2026-04-20 14:33 | 53.62407 | 9.97550 | 38 ft | 39 kts | 50° |
| 2026-04-20 14:33 | 53.62472 | 9.97783 | 38 ft | 14 kts | 128° |
| 2026-04-20 14:33 | 53.62431 | 9.97859 | 38 ft | 0 kts | 105° |
| 2026-04-20 14:34 | 53.62428 | 9.97908 | 38 ft | 10 kts | 82° |
| 2026-04-20 14:34 | 53.62430 | 9.97932 | 38 ft | 0 kts | 81° |
| 2026-04-20 14:34 | 53.62432 | 9.97947 | 38 ft | 7 kts | 81° |
| 2026-04-20 14:35 | 53.62450 | 9.98046 | 38 ft | 12 kts | 61° |
| 2026-04-20 14:35 | 53.62504 | 9.98176 | 39 ft | 14 kts | 51° |
| 2026-04-20 14:35 | 53.62565 | 9.98301 | 39 ft | 13 kts | 50° |
| 2026-04-20 14:35 | 53.62619 | 9.98408 | 40 ft | 11 kts | 50° |
| 2026-04-20 14:36 | 53.62666 | 9.98503 | 40 ft | 10 kts | 49° |
| 2026-04-20 14:36 | 53.62707 | 9.98587 | 40 ft | 9 kts | 50° |
| 2026-04-20 14:36 | 53.62745 | 9.98663 | 40 ft | 8 kts | 50° |
| 2026-04-20 14:36 | 53.62774 | 9.98723 | 40 ft | 6 kts | 51° |
| 2026-04-20 14:37 | 53.62796 | 9.98777 | 40 ft | 8 kts | 88° |
| 2026-04-20 14:37 | 53.62745 | 9.98813 | 40 ft | 11 kts | 239° |
| 2026-04-20 14:37 | 53.62738 | 9.98788 | 40 ft | 0 kts | 244° |